Dallas, Texas
Traffic Map
Current Weather Conditions
Dallas, Texas
Broken Clouds
Broken Clouds
17°
Feels Like: 17°
Wind Chill: 17° Ceiling: 25000
Heat Index: 17° Visibility: 10mi
Dew Point: Wind: 14mph
Humidity: 43% Direction: 150° (SSE)
Pressure: 29.69in Gusts: 0mph
Raw Report DataKDAL 241553Z 15012KT 10SM BKN250 17/04 A2969 RMK AO2 SLP048 T01720044
Traffic Incident Summary
Active as of:
Severity:
Category:
InformationThere was an issue retrieving the traffic information for this location. Please try a different location or try again shortly.
Advertisements
Track Severe Weather on mobile